createdAt,value
2018-12-09T00:00:25.757Z,79.96
2018-12-09T00:02:54.177Z,81.07
2018-12-09T00:05:22.337Z,80.40
2018-12-09T00:07:50.824Z,80.79
2018-12-09T00:10:18.539Z,81.18
2018-12-09T00:12:46.372Z,80.80
2018-12-09T00:15:14.131Z,81.06
2018-12-09T00:17:41.972Z,80.17
2018-12-09T00:20:10.367Z,80.22
2018-12-09T00:22:38.175Z,80.54
2018-12-09T00:25:06.209Z,79.71
2018-12-09T00:27:33.943Z,80.34
2018-12-09T00:30:01.693Z,80.34
2018-12-09T00:32:29.473Z,80.77
2018-12-09T00:34:57.227Z,80.52
2018-12-09T00:37:24.963Z,80.87
2018-12-09T00:39:52.753Z,81.92
2018-12-09T00:42:20.651Z,81.92
2018-12-09T00:44:48.379Z,82.01
2018-12-09T00:47:16.152Z,81.40
2018-12-09T00:49:43.953Z,80.35
2018-12-09T00:52:12.214Z,80.70
2018-12-09T00:54:40.169Z,80.98
2018-12-09T00:57:07.958Z,81.34
2018-12-09T00:59:35.732Z,81.36
2018-12-09T01:02:08.018Z,81.50
2018-12-09T01:04:35.774Z,81.90
2018-12-09T01:07:03.589Z,81.53
2018-12-09T01:09:31.450Z,82.39
2018-12-09T01:12:00.286Z,81.92
2018-12-09T01:14:28.082Z,82.02
2018-12-09T01:16:55.832Z,80.75
2018-12-09T01:19:23.516Z,80.77
2018-12-09T01:21:51.289Z,81.53
2018-12-09T01:24:19.090Z,80.23
2018-12-09T01:26:46.877Z,80.47
2018-12-09T01:29:14.670Z,80.93
2018-12-09T01:31:42.525Z,79.34
2018-12-09T01:34:10.863Z,80.22
2018-12-09T01:36:38.654Z,79.45
2018-12-09T01:39:06.604Z,80.82
2018-12-09T01:41:34.398Z,80.16
2018-12-09T01:44:02.151Z,80.64
2018-12-09T01:46:30.245Z,80.26
2018-12-09T01:48:58.099Z,79.78
2018-12-09T01:51:25.830Z,80.48
2018-12-09T01:54:10.169Z,80.14
2018-12-09T01:56:38.352Z,80.89
2018-12-09T01:59:06.600Z,80.70
2018-12-09T02:01:34.363Z,80.48
2018-12-09T02:04:02.118Z,81.09
2018-12-09T02:06:30.447Z,80.69
2018-12-09T02:08:58.216Z,80.28
2018-12-09T02:11:26.231Z,81.25
2018-12-09T02:13:53.996Z,81.31
2018-12-09T02:16:21.865Z,80.52
2018-12-09T02:19:01.386Z,81.83
2018-12-09T02:21:29.258Z,80.23
2018-12-09T02:23:57.095Z,81.21
2018-12-09T02:26:24.881Z,81.73
2018-12-09T02:28:52.744Z,81.18
2018-12-09T02:31:20.531Z,81.57
2018-12-09T02:33:48.913Z,81.07
2018-12-09T02:36:16.714Z,80.35
2018-12-09T02:38:44.515Z,81.08
2018-12-09T02:41:12.297Z,80.39
2018-12-09T02:43:40.054Z,80.27
2018-12-09T02:46:07.865Z,81.78
2018-12-09T02:48:35.609Z,80.45
2018-12-09T02:51:03.800Z,80.78
2018-12-09T02:53:32.606Z,81.67
2018-12-09T02:56:00.463Z,80.59
2018-12-09T02:58:28.249Z,81.25
2018-12-09T03:00:56.789Z,80.43
2018-12-09T03:03:24.565Z,81.16
2018-12-09T03:05:52.378Z,80.65
2018-12-09T03:08:20.151Z,80.65
2018-12-09T03:10:47.907Z,80.32
2018-12-09T03:13:15.755Z,80.75
2018-12-09T03:15:43.584Z,80.89
2018-12-09T03:18:11.347Z,80.35
2018-12-09T03:20:39.100Z,79.94
2018-12-09T03:23:06.881Z,79.90
2018-12-09T03:25:35.069Z,79.68
2018-12-09T03:28:02.866Z,79.60
2018-12-09T03:30:30.685Z,79.81
2018-12-09T03:32:58.506Z,79.93
2018-12-09T03:35:26.297Z,79.72
2018-12-09T03:37:54.388Z,79.52
2018-12-09T03:40:22.214Z,79.49
2018-12-09T03:42:49.943Z,79.77
2018-12-09T03:45:17.811Z,79.56
2018-12-09T03:47:45.579Z,80.25
2018-12-09T03:50:13.544Z,80.62
2018-12-09T03:52:41.332Z,79.91
2018-12-09T03:55:09.116Z,80.27
2018-12-09T03:57:36.880Z,79.83
2018-12-09T04:00:05.621Z,80.87
2018-12-09T04:02:33.445Z,79.83
2018-12-09T04:05:01.190Z,80.92
2018-12-09T04:07:28.998Z,79.90
2018-12-09T04:09:56.841Z,80.02
2018-12-09T04:12:24.701Z,79.65
2018-12-09T04:14:52.508Z,79.70
2018-12-09T04:17:20.275Z,79.90
2018-12-09T04:19:48.107Z,79.99
2018-12-09T04:22:15.914Z,80.10
2018-12-09T04:24:43.772Z,80.51
2018-12-09T04:27:11.492Z,80.82
2018-12-09T04:29:39.261Z,80.07
2018-12-09T04:32:07.013Z,80.87
2018-12-09T04:34:34.918Z,81.41
2018-12-09T04:37:02.699Z,80.10
2018-12-09T04:39:30.400Z,80.59
2018-12-09T04:41:58.214Z,80.79
2018-12-09T04:44:26.048Z,81.28
2018-12-09T04:46:53.931Z,81.04
2018-12-09T04:49:21.787Z,80.47
2018-12-09T04:51:56.250Z,80.46
2018-12-09T04:54:25.164Z,80.70
2018-12-09T04:56:53.670Z,80.55
2018-12-09T04:59:22.817Z,81.22
2018-12-09T05:01:50.618Z,80.78
2018-12-09T05:04:18.561Z,81.29
2018-12-09T05:06:46.306Z,81.01
2018-12-09T05:09:14.216Z,80.33
2018-12-09T05:11:41.982Z,81.10
2018-12-09T05:14:09.782Z,80.14
2018-12-09T05:16:37.589Z,80.65
2018-12-09T05:19:05.491Z,80.59
2018-12-09T05:21:33.277Z,80.96
2018-12-09T05:24:01.120Z,81.14
2018-12-09T05:26:28.904Z,80.93
2018-12-09T05:28:56.772Z,80.68
2018-12-09T05:31:24.650Z,80.90
2018-12-09T05:33:52.398Z,81.18
2018-12-09T05:36:20.177Z,80.15
2018-12-09T05:38:48.013Z,80.28
2018-12-09T05:41:15.769Z,80.67
2018-12-09T05:43:43.586Z,80.24
2018-12-09T05:46:11.382Z,80.50
2018-12-09T05:48:39.543Z,80.04
2018-12-09T05:51:07.362Z,79.70
2018-12-09T05:53:35.126Z,79.89
2018-12-09T05:56:02.957Z,79.65
2018-12-09T05:58:32.704Z,79.21
2018-12-09T06:01:00.468Z,79.56
2018-12-09T06:03:28.353Z,79.49
2018-12-09T06:05:56.089Z,79.70
2018-12-09T06:08:23.834Z,80.09
2018-12-09T06:10:51.604Z,79.58
2018-12-09T06:13:21.682Z,78.77
2018-12-09T06:15:49.510Z,78.77
2018-12-09T06:18:17.315Z,78.22
2018-12-09T06:20:45.371Z,78.38
2018-12-09T06:23:13.244Z,78.78
2018-12-09T06:25:41.170Z,78.86
2018-12-09T06:28:08.988Z,78.62
2018-12-09T06:30:36.833Z,78.90
2018-12-09T06:33:04.613Z,79.27
2018-12-09T06:35:32.411Z,79.64
2018-12-09T06:38:00.204Z,80.10
2018-12-09T06:40:27.968Z,79.94
2018-12-09T06:42:55.737Z,80.08
2018-12-09T06:45:23.492Z,80.49
2018-12-09T06:47:51.277Z,80.32
2018-12-09T06:50:19.085Z,80.04
2018-12-09T06:52:46.861Z,80.21
2018-12-09T06:55:14.745Z,80.08
2018-12-09T06:57:42.535Z,80.49
2018-12-09T07:00:10.526Z,80.15
2018-12-09T07:02:38.362Z,80.30
2018-12-09T07:05:07.492Z,79.84
2018-12-09T07:07:35.272Z,79.47
2018-12-09T07:10:03.617Z,79.78
2018-12-09T07:12:31.405Z,80.27
2018-12-09T07:14:59.206Z,79.95
2018-12-09T07:17:27.392Z,79.98
2018-12-09T07:19:55.119Z,80.07
2018-12-09T07:22:22.890Z,79.95
2018-12-09T07:24:50.672Z,79.94
2018-12-09T07:27:18.366Z,80.04
2018-12-09T07:29:46.157Z,78.91
2018-12-09T07:32:14.734Z,78.82
2018-12-09T07:34:42.612Z,79.02
2018-12-09T07:37:10.406Z,79.24
2018-12-09T07:39:38.162Z,78.62
2018-12-09T07:42:05.998Z,78.87
2018-12-09T07:44:33.796Z,78.77
2018-12-09T07:47:01.549Z,78.88
2018-12-09T07:49:29.377Z,79.22
2018-12-09T07:51:57.145Z,79.23
2018-12-09T07:54:24.872Z,78.54
2018-12-09T07:56:52.744Z,78.78
2018-12-09T07:59:20.500Z,78.97
2018-12-09T08:01:48.277Z,78.39
2018-12-09T08:04:15.994Z,78.73
2018-12-09T08:06:43.851Z,78.78
2018-12-09T08:09:12.659Z,79.17
2018-12-09T08:11:40.451Z,79.43
2018-12-09T08:14:08.179Z,79.39
2018-12-09T08:16:36.014Z,79.96
2018-12-09T08:19:03.845Z,80.13
2018-12-09T08:21:31.929Z,80.21
2018-12-09T08:23:59.639Z,80.49
2018-12-09T08:26:27.379Z,80.29
2018-12-09T08:28:55.189Z,80.21
2018-12-09T08:31:22.941Z,79.76
2018-12-09T08:33:50.855Z,79.21
2018-12-09T08:36:18.597Z,79.35
2018-12-09T08:38:46.400Z,79.47
2018-12-09T08:41:14.100Z,79.47
2018-12-09T08:43:41.799Z,79.24
2018-12-09T08:46:09.562Z,79.17
2018-12-09T08:48:37.277Z,79.13
2018-12-09T08:51:05.052Z,78.71
2018-12-09T08:53:32.801Z,78.82
2018-12-09T08:56:00.714Z,77.50
2018-12-09T08:58:28.461Z,77.01
2018-12-09T09:00:56.221Z,76.82
2018-12-09T09:03:24.057Z,76.78
2018-12-09T09:05:51.890Z,76.58
2018-12-09T09:08:19.730Z,77.94
2018-12-09T09:10:48.869Z,76.13
2018-12-09T09:13:16.690Z,76.35
2018-12-09T09:15:45.024Z,76.69
2018-12-09T09:18:12.790Z,77.88
2018-12-09T09:20:40.525Z,77.92
2018-12-09T09:23:08.351Z,77.03
2018-12-09T09:25:36.123Z,77.76
2018-12-09T09:28:04.061Z,77.05
2018-12-09T09:30:31.803Z,77.32
2018-12-09T09:32:59.669Z,77.49
2018-12-09T09:35:27.447Z,78.27
2018-12-09T09:37:55.185Z,78.86
2018-12-09T09:40:23.031Z,79.28
2018-12-09T09:42:50.866Z,78.97
2018-12-09T09:45:18.685Z,79.38
2018-12-09T09:47:46.481Z,79.72
2018-12-09T09:50:14.254Z,78.82
2018-12-09T09:52:42.136Z,77.99
2018-12-09T09:55:09.885Z,78.43
2018-12-09T09:57:37.592Z,78.30
2018-12-09T10:00:07.161Z,78.90
2018-12-09T10:02:34.913Z,78.44
2018-12-09T10:05:02.683Z,78.71
2018-12-09T10:07:30.459Z,79.32
2018-12-09T10:09:58.232Z,79.56
2018-12-09T10:12:26.014Z,79.40
2018-12-09T10:14:53.836Z,79.65
2018-12-09T10:17:21.563Z,79.36
2018-12-09T10:19:49.338Z,78.99
2018-12-09T10:22:17.064Z,78.75
2018-12-09T10:24:44.834Z,78.85
2018-12-09T10:27:12.568Z,78.51
2018-12-09T10:29:40.400Z,77.78
2018-12-09T10:32:08.197Z,78.02
2018-12-09T10:34:38.850Z,78.36
2018-12-09T10:37:05.851Z,77.15
2018-12-09T10:39:33.662Z,76.96
2018-12-09T10:42:01.480Z,76.90
2018-12-09T10:44:29.243Z,76.00
2018-12-09T10:46:57.127Z,76.25
2018-12-09T10:49:25.016Z,76.37
2018-12-09T10:51:52.833Z,76.18
2018-12-09T10:54:20.601Z,75.90
2018-12-09T10:56:48.450Z,76.17
2018-12-09T10:59:16.345Z,76.08
2018-12-09T11:01:48.699Z,76.04
2018-12-09T11:04:16.438Z,75.88
2018-12-09T11:06:44.261Z,75.95
2018-12-09T11:09:12.041Z,75.91
2018-12-09T11:11:39.806Z,75.20
2018-12-09T11:14:08.024Z,74.83
2018-12-09T11:16:35.822Z,75.18
2018-12-09T11:19:03.649Z,75.23
2018-12-09T11:21:31.394Z,74.96
2018-12-09T11:24:02.364Z,74.92
2018-12-09T11:26:31.404Z,74.61
2018-12-09T11:29:01.147Z,74.60
2018-12-09T11:31:29.078Z,74.77
2018-12-09T11:33:56.830Z,74.54
2018-12-09T11:36:24.539Z,73.60
2018-12-09T11:38:52.334Z,73.50
2018-12-09T11:41:20.098Z,73.79
2018-12-09T11:43:47.840Z,73.61
2018-12-09T11:46:15.583Z,73.89
2018-12-09T11:48:43.419Z,74.30
2018-12-09T11:51:11.813Z,75.04
2018-12-09T11:53:40.453Z,75.04
2018-12-09T11:56:08.160Z,75.27
2018-12-09T11:58:35.944Z,74.98
2018-12-09T12:01:03.814Z,75.09
2018-12-09T12:03:31.543Z,74.44
2018-12-09T12:05:59.319Z,74.16
2018-12-09T12:08:27.109Z,73.59
2018-12-09T12:10:54.872Z,73.39
2018-12-09T12:13:23.068Z,73.41
2018-12-09T12:15:50.886Z,73.39
2018-12-09T12:18:18.619Z,73.79
2018-12-09T12:20:46.402Z,74.79
2018-12-09T12:23:14.187Z,73.78
2018-12-09T12:25:41.926Z,74.17
2018-12-09T12:28:09.678Z,72.53
2018-12-09T12:30:37.443Z,71.53
2018-12-09T12:33:05.201Z,71.56
2018-12-09T12:35:32.993Z,71.79
2018-12-09T12:38:00.725Z,72.99
2018-12-09T12:40:29.074Z,73.22
2018-12-09T12:42:57.406Z,73.71
2018-12-09T12:45:25.571Z,74.39
2018-12-09T12:47:53.972Z,74.11
2018-12-09T12:50:21.847Z,74.14
2018-12-09T12:52:49.628Z,74.65
2018-12-09T12:55:17.409Z,74.24
2018-12-09T12:57:45.159Z,74.85
2018-12-09T13:00:15.888Z,74.96
2018-12-09T13:02:44.291Z,74.91
2018-12-09T13:05:12.028Z,74.29
2018-12-09T13:07:39.760Z,74.17
2018-12-09T13:10:07.689Z,74.29
2018-12-09T13:12:35.521Z,74.53
2018-12-09T13:15:04.021Z,74.01
2018-12-09T13:17:31.848Z,74.22
2018-12-09T13:19:59.609Z,74.23
2018-12-09T13:22:27.419Z,74.44
2018-12-09T13:24:55.185Z,73.96
2018-12-09T13:27:22.981Z,73.91
2018-12-09T13:29:50.696Z,73.73
2018-12-09T13:32:19.161Z,72.50
2018-12-09T13:34:46.958Z,72.98
2018-12-09T13:37:14.763Z,72.55
2018-12-09T13:39:44.272Z,72.89
2018-12-09T13:42:12.114Z,73.32
2018-12-09T13:44:39.860Z,73.35
2018-12-09T13:47:07.693Z,73.88
2018-12-09T13:49:35.490Z,73.75
2018-12-09T13:52:03.274Z,73.61
2018-12-09T13:54:31.082Z,73.65
2018-12-09T13:56:58.892Z,73.59
2018-12-09T13:59:27.620Z,73.74
2018-12-09T14:01:55.483Z,73.09
2018-12-09T14:04:23.244Z,72.39
2018-12-09T14:06:51.074Z,71.42
2018-12-09T14:09:18.879Z,70.69
2018-12-09T14:11:46.718Z,71.02
2018-12-09T14:14:14.518Z,70.43
2018-12-09T14:16:42.345Z,69.45
2018-12-09T14:19:10.180Z,68.96
2018-12-09T14:21:37.968Z,68.79
2018-12-09T14:24:05.766Z,68.74
2018-12-09T14:26:33.528Z,69.10
2018-12-09T14:29:01.582Z,69.39
2018-12-09T14:31:30.897Z,69.59
2018-12-09T14:33:58.713Z,68.68
2018-12-09T14:36:26.460Z,68.12
2018-12-09T14:38:54.240Z,67.44
2018-12-09T14:41:22.129Z,66.74
2018-12-09T14:43:49.912Z,66.79
2018-12-09T14:46:17.742Z,67.23
2018-12-09T14:48:45.509Z,67.48
2018-12-09T14:51:13.273Z,67.98
2018-12-09T14:53:41.051Z,68.93
2018-12-09T14:56:08.821Z,70.29
2018-12-09T14:58:36.640Z,71.18
2018-12-09T15:01:04.412Z,71.16
2018-12-09T15:03:32.148Z,71.65
2018-12-09T15:05:59.927Z,70.96
2018-12-09T15:08:27.696Z,71.27
2018-12-09T15:10:55.447Z,71.90
2018-12-09T15:13:23.250Z,71.57
2018-12-09T15:15:51.017Z,71.41
2018-12-09T15:18:18.812Z,71.28
2018-12-09T15:20:46.654Z,71.38
2018-12-09T15:23:14.398Z,70.51
2018-12-09T15:25:42.103Z,70.63
2018-12-09T15:28:09.907Z,70.37
2018-12-09T15:30:37.728Z,70.71
2018-12-09T15:33:05.517Z,71.08
2018-12-09T15:35:33.280Z,70.64
2018-12-09T15:38:01.049Z,71.21
2018-12-09T15:40:28.817Z,71.61
2018-12-09T15:42:56.620Z,72.32
2018-12-09T15:45:24.541Z,71.10
2018-12-09T15:47:52.272Z,71.16
2018-12-09T15:50:20.056Z,71.15
2018-12-09T15:52:47.816Z,70.94
2018-12-09T15:55:16.143Z,70.75
2018-12-09T15:57:43.925Z,70.20
2018-12-09T16:00:11.770Z,69.68
2018-12-09T16:02:39.615Z,70.05
2018-12-09T16:05:08.516Z,71.16
2018-12-09T16:07:36.277Z,71.97
2018-12-09T16:10:05.859Z,72.41
2018-12-09T16:12:33.605Z,72.01
2018-12-09T16:15:01.380Z,71.06
2018-12-09T16:17:29.153Z,70.07
2018-12-09T16:19:56.966Z,69.44
2018-12-09T16:22:24.703Z,70.12
2018-12-09T16:24:52.540Z,70.52
2018-12-09T16:27:20.306Z,70.99
2018-12-09T16:29:48.131Z,71.57
2018-12-09T16:32:15.922Z,71.64
2018-12-09T16:34:44.249Z,71.69
2018-12-09T16:37:12.078Z,69.82
2018-12-09T16:39:39.812Z,69.75
2018-12-09T16:42:07.572Z,69.63
2018-12-09T16:44:35.322Z,69.67
2018-12-09T16:47:03.119Z,67.67
2018-12-09T16:49:30.844Z,69.75
2018-12-09T16:51:58.629Z,69.72
2018-12-09T16:54:26.380Z,68.26
2018-12-09T16:56:54.137Z,65.95
2018-12-09T16:59:21.930Z,66.86
2018-12-09T17:01:49.743Z,67.10
2018-12-09T17:04:17.492Z,66.81
2018-12-09T17:06:45.235Z,67.80
2018-12-09T17:09:13.041Z,68.71
2018-12-09T17:11:40.797Z,69.02
2018-12-09T17:14:08.588Z,69.65
2018-12-09T17:16:36.405Z,70.01
2018-12-09T17:19:04.158Z,70.27
2018-12-09T17:21:32.090Z,69.98
2018-12-09T17:23:59.962Z,69.21
2018-12-09T17:26:28.102Z,68.72
2018-12-09T17:28:55.874Z,69.39
2018-12-09T17:31:23.633Z,69.82
2018-12-09T17:33:51.670Z,68.47
2018-12-09T17:36:19.432Z,68.99
2018-12-09T17:38:47.164Z,72.31
2018-12-09T17:41:15.002Z,75.59
2018-12-09T17:43:42.781Z,76.12
2018-12-09T17:46:10.525Z,75.98
2018-12-09T17:48:38.367Z,76.07
2018-12-09T17:51:06.161Z,76.77
2018-12-09T17:53:33.916Z,76.33
2018-12-09T17:56:01.701Z,74.44
2018-12-09T17:58:29.423Z,72.87
2018-12-09T18:00:57.161Z,72.09
2018-12-09T18:03:24.991Z,72.42
2018-12-09T18:05:52.741Z,72.13
2018-12-09T18:08:20.499Z,69.83
2018-12-09T18:10:48.230Z,68.86
2018-12-09T18:13:15.997Z,69.28
2018-12-09T18:15:45.908Z,66.29
2018-12-09T18:18:13.697Z,65.94
2018-12-09T18:20:41.638Z,67.23
2018-12-09T18:23:10.013Z,68.65
2018-12-09T18:25:37.717Z,69.79
2018-12-09T18:28:05.522Z,69.72
2018-12-09T18:30:33.316Z,70.99
2018-12-09T18:33:02.131Z,71.98
2018-12-09T18:35:30.077Z,72.23
2018-12-09T18:37:58.180Z,72.23
2018-12-09T18:40:25.966Z,71.85
2018-12-09T18:42:53.742Z,71.42
2018-12-09T18:45:21.545Z,71.61
2018-12-09T18:47:49.378Z,71.52
2018-12-09T18:50:17.179Z,69.79
2018-12-09T18:52:44.950Z,68.44
2018-12-09T18:55:12.809Z,64.77
2018-12-09T18:57:40.597Z,64.80
2018-12-09T19:00:08.481Z,66.18
2018-12-09T19:02:36.249Z,67.77
2018-12-09T19:05:04.726Z,68.37
2018-12-09T19:07:32.583Z,68.88
2018-12-09T19:10:02.241Z,69.13
2018-12-09T19:12:30.282Z,69.83
2018-12-09T19:14:58.057Z,70.23
2018-12-09T19:17:25.870Z,70.26
2018-12-09T19:19:53.661Z,70.42
2018-12-09T19:22:21.523Z,69.40
2018-12-09T19:24:49.294Z,69.89
2018-12-09T19:27:17.061Z,69.86
2018-12-09T19:29:44.788Z,70.02
2018-12-09T19:32:12.581Z,69.53
2018-12-09T19:34:40.346Z,69.29
2018-12-09T19:37:08.256Z,69.13
2018-12-09T19:39:36.055Z,70.15
2018-12-09T19:42:03.820Z,70.38
2018-12-09T19:44:31.538Z,70.23
2018-12-09T19:46:59.725Z,70.41
2018-12-09T19:49:29.886Z,70.57
2018-12-09T19:51:57.652Z,71.30
2018-12-09T19:54:26.046Z,71.76
2018-12-09T19:56:53.854Z,70.44
2018-12-09T19:59:21.933Z,69.49
2018-12-09T20:01:49.802Z,70.29
2018-12-09T20:04:17.623Z,70.15
2018-12-09T20:06:45.413Z,70.21
2018-12-09T20:09:13.196Z,69.75
2018-12-09T20:11:40.934Z,70.14
2018-12-09T20:14:08.732Z,70.52
2018-12-09T20:16:36.555Z,70.44
2018-12-09T20:19:04.332Z,70.85
2018-12-09T20:21:32.233Z,72.15
2018-12-09T20:24:00.220Z,73.36
2018-12-09T20:26:27.966Z,74.31
2018-12-09T20:28:55.912Z,74.72
2018-12-09T20:31:23.782Z,74.29
2018-12-09T20:33:51.582Z,74.15
2018-12-09T20:36:19.419Z,73.80
2018-12-09T20:38:47.185Z,73.41
2018-12-09T20:41:14.961Z,73.37
2018-12-09T20:43:42.737Z,73.83
2018-12-09T20:46:10.513Z,73.76
2018-12-09T20:48:38.301Z,74.20
2018-12-09T20:51:06.897Z,74.16
2018-12-09T20:53:34.657Z,74.48
2018-12-09T20:56:02.405Z,74.18
2018-12-09T20:58:31.576Z,73.37
2018-12-09T21:00:59.301Z,72.63
2018-12-09T21:03:27.045Z,72.19
2018-12-09T21:05:54.780Z,72.29
2018-12-09T21:08:23.623Z,72.01
2018-12-09T21:10:51.446Z,71.06
2018-12-09T21:13:19.197Z,71.45
2018-12-09T21:15:47.196Z,69.18
2018-12-09T21:18:15.048Z,69.50
2018-12-09T21:20:44.946Z,68.36
2018-12-09T21:23:12.752Z,69.17
2018-12-09T21:25:40.553Z,69.14
2018-12-09T21:28:08.334Z,68.69
2018-12-09T21:30:36.132Z,68.44
2018-12-09T21:33:03.967Z,68.71
2018-12-09T21:35:32.120Z,67.99
2018-12-09T21:37:59.953Z,67.94
2018-12-09T21:40:27.717Z,68.93
2018-12-09T21:42:55.489Z,67.79
2018-12-09T21:45:23.215Z,68.19
2018-12-09T21:47:50.976Z,68.96
2018-12-09T21:50:18.844Z,69.36
2018-12-09T21:52:46.684Z,68.92
2018-12-09T21:55:14.490Z,68.17
2018-12-09T21:57:42.342Z,67.23
2018-12-09T22:00:10.242Z,67.05
2018-12-09T22:02:38.850Z,67.63
2018-12-09T22:05:07.159Z,66.92
2018-12-09T22:07:34.933Z,67.10
2018-12-09T22:10:02.929Z,68.15
2018-12-09T22:12:31.080Z,69.05
2018-12-09T22:14:58.916Z,69.50
2018-12-09T22:17:27.395Z,70.95
2018-12-09T22:19:55.198Z,69.90
2018-12-09T22:22:23.050Z,68.94
2018-12-09T22:24:50.812Z,69.40
2018-12-09T22:27:18.605Z,70.25
2018-12-09T22:29:46.382Z,71.52
2018-12-09T22:32:14.221Z,72.56
2018-12-09T22:34:42.092Z,73.47
2018-12-09T22:37:09.874Z,76.45
2018-12-09T22:39:37.646Z,74.38
2018-12-09T22:42:05.423Z,72.33
2018-12-09T22:44:33.281Z,72.51
2018-12-09T22:47:01.031Z,73.12
2018-12-09T22:49:28.740Z,73.78
2018-12-09T22:51:57.108Z,74.50
2018-12-09T22:54:24.894Z,72.52
2018-12-09T22:56:52.676Z,72.65
2018-12-09T22:59:20.441Z,72.66
2018-12-09T23:01:53.765Z,73.37
2018-12-09T23:04:21.544Z,71.60
2018-12-09T23:06:49.326Z,67.89
2018-12-09T23:09:18.127Z,67.74
2018-12-09T23:11:45.897Z,66.94
2018-12-09T23:14:13.611Z,67.20
2018-12-09T23:16:41.584Z,67.53
2018-12-09T23:19:09.332Z,68.16
2018-12-09T23:21:37.116Z,68.28
2018-12-09T23:24:04.860Z,68.74
2018-12-09T23:26:33.145Z,68.70
2018-12-09T23:29:00.892Z,69.21
2018-12-09T23:31:28.714Z,70.19
2018-12-09T23:33:56.516Z,71.01
2018-12-09T23:36:24.297Z,71.90
2018-12-09T23:38:52.048Z,71.90
2018-12-09T23:41:19.832Z,72.85
2018-12-09T23:43:47.649Z,74.96
2018-12-09T23:46:15.375Z,74.14
2018-12-09T23:48:43.234Z,73.34
2018-12-09T23:51:11.008Z,73.72
2018-12-09T23:53:38.735Z,72.67
2018-12-09T23:56:06.456Z,71.28
2018-12-09T23:58:34.200Z,70.92
